Alleghany, Virginia
Current Conditions -  °F | °C
As of 1:15 AM on Monday 22 Dec 2014 (Local Time) from KHSP Reporting Station
Haze Haze  
Wind Chill: 22°   Ceiling: 300
Heat Index: 29°   Visibility: 0.75mi
Dew Point: 29°   Wind: 7mph
Humidity: 100%   Direction: 150°SSE
Pressure: 30.1"   Gusts: NA
Location:  37.7731°N, 80.0632°W
Report Text: KHSP 220615Z AUTO 15006KT 3/4SM BR OVC003 M02/M02 A3010 RMK AO2 T10181018
Loading
Personal Weather Stations






























Interactive Weather Map New forecast layout! Learn more

10-Day Weather Forecast

Advertisements
Track Severe Weather on mobile